Time;durP1;ratioP1;P1;durP2;ratioP2;P2;SDS_P1;SDS_P2;PMS_P1;PMS_P2;Temp;Humidity;BMP_temperature;BMP_pressure;BME280_temperature;BME280_humidity;BME280_pressure;Samples;Min_cycle;Max_cycle;Signal;HPM_P1;HPM_P2
2023/07/01 00:02:01;;;;;;;4.90;4.27;;;16.80;96.00;;;16.47;67.24;100309.09;5055739;28;20285;-76
2023/07/01 00:04:33;;;;;;;5.83;4.20;;;16.80;96.60;;;16.45;66.82;100302.25;5055281;28;20719;-76
2023/07/01 00:07:05;;;;;;;7.30;3.77;;;16.80;96.10;;;16.49;67.38;100306.19;5055591;28;20194;-76
2023/07/01 00:09:38;;;;;;;7.77;4.00;;;16.80;96.20;;;16.42;66.99;100289.16;5055105;28;20215;-76
2023/07/01 00:12:10;;;;;;;7.57;4.33;;;16.70;96.10;;;16.40;66.99;100297.50;5055301;28;20201;-76
2023/07/01 00:14:42;;;;;;;7.23;4.20;;;16.70;96.10;;;16.38;66.49;100287.91;5054362;28;20802;-76
2023/07/01 00:17:16;;;;;;;4.87;3.87;;;16.70;96.10;;;16.34;66.98;100286.66;5055114;28;20719;-76
2023/07/01 00:19:48;;;;;;;6.53;3.70;;;16.60;95.90;;;16.35;66.88;100288.34;5057277;28;20225;-75
2023/07/01 00:22:20;;;;;;;5.10;3.50;;;16.70;95.90;;;16.28;66.54;100277.53;5057766;28;20528;-74
2023/07/01 00:24:53;;;;;;;5.13;3.60;;;16.60;95.80;;;16.23;66.89;100285.44;5056165;28;20268;-75
2023/07/01 00:27:25;;;;;;;5.00;3.53;;;16.50;95.90;;;16.16;65.99;100279.22;5055327;28;20197;-75
2023/07/01 00:29:57;;;;;;;7.20;3.30;;;16.50;95.80;;;16.06;66.63;100276.09;5055273;28;20220;-75
2023/07/01 00:32:29;;;;;;;4.87;3.43;;;16.40;95.80;;;16.07;66.42;100275.03;5055381;28;20600;-76
2023/07/01 00:35:00;;;;;;;5.63;3.53;;;16.50;95.80;;;16.05;66.20;100282.53;5054984;28;20233;-76
2023/07/01 00:37:32;;;;;;;5.63;3.43;;;16.30;95.90;;;16.01;66.74;100273.16;5055242;28;20273;-76
2023/07/01 00:40:07;;;;;;;3.70;3.20;;;16.40;96.20;;;15.93;65.79;100268.78;5055076;28;20187;-77
2023/07/01 00:42:39;;;;;;;3.93;3.00;;;16.30;95.80;;;15.78;65.41;100267.34;5054740;28;20606;-77
2023/07/01 00:45:17;;;;;;;4.63;3.40;;;16.20;95.50;;;15.86;65.73;100267.13;5054986;28;20318;-77
2023/07/01 00:47:49;;;;;;;6.37;3.00;;;16.20;95.90;;;15.90;66.09;100269.22;5055169;28;20205;-76
2023/07/01 00:50:21;;;;;;;4.83;3.20;;;16.30;95.80;;;15.89;66.16;100250.53;5054634;28;20733;-76
2023/07/01 00:52:53;;;;;;;4.90;3.17;;;16.20;95.70;;;15.89;66.67;100261.31;5054924;28;20293;-76
2023/07/01 00:55:23;;;;;;;3.20;2.90;;;16.20;95.90;;;15.91;66.89;100257.38;5054860;28;20317;-76
2023/07/01 00:57:55;;;;;;;3.50;3.20;;;16.20;95.90;;;15.87;66.48;100252.59;5054735;28;20206;-76
2023/07/01 01:00:27;;;;;;;4.73;3.00;;;16.30;95.90;;;15.87;66.99;100247.19;5054489;28;20182;-76
2023/07/01 01:03:15;;;;;;;4.47;3.20;;;16.20;96.00;;;15.88;67.31;100244.28;5054696;28;20201;-76
2023/07/01 01:05:56;;;;;;;7.47;3.20;;;16.30;96.10;;;15.94;66.43;100237.22;5054737;28;20240;-76
2023/07/01 01:08:36;;;;;;;4.80;3.27;;;16.40;96.00;;;15.95;66.68;100241.59;5054642;28;20190;-76
2023/07/01 01:11:13;;;;;;;4.50;2.73;;;16.30;96.00;;;15.93;66.74;100243.66;5054583;28;20274;-76
2023/07/01 01:13:46;;;;;;;3.47;2.83;;;16.30;96.00;;;15.95;67.42;100234.34;5054058;28;20229;-76
2023/07/01 01:16:19;;;;;;;4.90;2.90;;;16.30;96.40;;;15.94;66.55;100231.81;5054498;28;20198;-76
2023/07/01 01:18:54;;;;;;;5.90;2.90;;;16.30;96.20;;;15.94;66.51;100232.66;5054418;28;20273;-76
2023/07/01 01:21:29;;;;;;;3.87;2.93;;;16.30;96.10;;;15.91;67.59;100232.25;5054005;28;20596;-76
2023/07/01 01:24:09;;;;;;;4.13;3.00;;;16.30;96.50;;;15.90;67.52;100233.28;5054200;28;20269;-76
2023/07/01 01:26:45;;;;;;;6.00;2.90;;;16.30;96.20;;;15.88;67.16;100235.38;5053202;28;20269;-76
2023/07/01 01:29:19;;;;;;;5.60;3.20;;;16.20;96.30;;;15.82;66.93;100228.09;5053803;28;20210;-76
2023/07/01 01:31:51;;;;;;;5.47;2.90;;;16.20;96.10;;;15.81;67.65;100229.13;5053869;28;20186;-76
2023/07/01 01:34:23;;;;;;;4.10;2.93;;;16.30;96.20;;;15.82;66.81;100220.00;5053672;28;20234;-76
2023/07/01 01:37:01;;;;;;;4.50;3.00;;;16.20;96.50;;;15.75;67.06;100224.56;5053713;28;20621;-76
2023/07/01 01:39:42;;;;;;;4.97;3.13;;;16.10;96.20;;;15.77;67.90;100225.16;5053998;28;20193;-76
2023/07/01 01:42:30;;;;;;;3.60;2.70;;;16.10;96.40;;;15.76;67.78;100218.94;5053613;28;20281;-76
2023/07/01 01:45:09;;;;;;;3.87;2.70;;;16.10;96.30;;;15.78;67.78;100211.47;5053837;28;20265;-76
2023/07/01 01:47:41;;;;;;;4.63;2.97;;;16.30;96.30;;;15.76;67.16;100207.31;5053867;28;20190;-76
2023/07/01 01:50:20;;;;;;;5.20;3.00;;;16.20;96.20;;;15.75;67.11;100194.88;5053794;28;20218;-76
2023/07/01 01:52:56;;;;;;;4.03;2.90;;;16.10;96.30;;;15.73;67.52;100201.28;5054545;28;20273;-76
2023/07/01 01:55:30;;;;;;;5.53;2.50;;;16.10;96.40;;;15.76;67.87;100201.91;5053580;28;20233;-76
2023/07/01 01:58:02;;;;;;;3.43;2.60;;;16.10;96.50;;;15.73;68.36;100193.19;5053302;28;20633;-77
2023/07/01 02:00:38;;;;;;;4.57;3.03;;;16.20;96.70;;;15.78;68.81;100191.75;5053610;28;20220;-76
2023/07/01 02:03:11;;;;;;;6.37;3.00;;;16.20;96.90;;;15.76;68.77;100191.09;5053598;28;20202;-76
2023/07/01 02:05:43;;;;;;;5.47;2.93;;;16.20;97.00;;;15.75;69.08;100194.88;5053487;28;20254;-76
2023/07/01 02:08:15;;;;;;;5.83;3.00;;;16.10;97.00;;;15.76;68.79;100185.72;5053142;28;20644;-76
2023/07/01 02:10:47;;;;;;;3.30;2.97;;;16.40;97.20;;;15.71;68.63;100184.50;5053450;28;20210;-76
2023/07/01 02:13:21;;;;;;;5.07;2.93;;;16.20;97.10;;;15.69;69.26;100181.16;5053409;28;20283;-76
2023/07/01 02:15:54;;;;;;;5.27;3.13;;;16.10;97.30;;;15.68;68.98;100168.69;5053423;28;20201;-76
2023/07/01 02:18:26;;;;;;;5.93;3.20;;;16.10;97.10;;;15.69;68.26;100174.91;5053350;28;20190;-76
2023/07/01 02:20:58;;;;;;;3.37;2.80;;;16.10;97.00;;;15.68;68.69;100167.88;5053276;28;20190;-76
2023/07/01 02:23:30;;;;;;;4.73;2.90;;;16.10;97.10;;;15.67;69.33;100161.66;5052898;28;20200;-76
2023/07/01 02:26:01;;;;;;;3.70;3.00;;;16.10;97.00;;;15.65;69.40;100147.50;5052968;28;20644;-76
2023/07/01 02:28:33;;;;;;;3.67;3.10;;;16.20;97.10;;;15.67;68.46;100155.41;5053192;28;20433;-76
2023/07/01 02:31:07;;;;;;;4.07;2.40;;;16.10;97.00;;;15.65;68.62;100150.22;5053068;28;20214;-76
2023/07/01 02:33:41;;;;;;;3.20;2.60;;;16.10;97.00;;;15.64;68.89;100147.75;5052685;28;20698;-77
2023/07/01 02:36:13;;;;;;;5.77;2.97;;;16.10;97.00;;;15.63;68.85;100148.78;5053117;28;20201;-77
2023/07/01 02:38:45;;;;;;;5.20;3.30;;;16.10;97.10;;;15.61;68.59;100140.91;5052765;28;20285;-77
2023/07/01 02:41:16;;;;;;;4.77;2.60;;;16.00;97.10;;;15.59;69.12;100132.16;5053043;28;20297;-76
2023/07/01 02:43:48;;;;;;;2.97;2.60;;;16.00;97.20;;;15.59;68.66;100128.63;5052946;28;20262;-76
2023/07/01 02:46:22;;;;;;;2.87;2.53;;;16.00;96.90;;;15.58;68.11;100125.09;5052980;28;20225;-76
2023/07/01 02:48:54;;;;;;;5.00;2.60;;;16.00;97.10;;;15.58;68.06;100116.19;5053000;28;20186;-76
2023/07/01 02:51:26;;;;;;;5.17;2.80;;;16.00;97.10;;;15.56;68.14;100116.38;5052858;28;20286;-76
2023/07/01 02:53:57;;;;;;;6.37;2.90;;;16.00;97.00;;;15.54;68.09;100110.38;5052914;28;20395;-76
2023/07/01 02:56:29;;;;;;;4.83;2.73;;;16.00;97.00;;;15.53;68.32;100106.00;5052974;28;20382;-76
2023/07/01 02:59:01;;;;;;;3.77;2.70;;;16.00;96.90;;;15.49;68.19;100104.75;5052913;28;20194;-76
2023/07/01 03:01:34;;;;;;;6.90;2.70;;;15.90;96.90;;;15.46;67.80;100098.91;5052850;28;20194;-76
2023/07/01 03:04:09;;;;;;;6.03;2.73;;;15.90;96.80;;;15.42;68.05;100103.91;5053057;28;20299;-76
2023/07/01 03:06:52;;;;;;;4.53;2.70;;;15.80;96.80;;;15.43;67.21;100105.56;5053392;28;20232;-76
2023/07/01 03:09:24;;;;;;;2.63;2.30;;;15.80;96.60;;;15.37;67.21;100101.00;5052785;28;20186;-76
2023/07/01 03:11:56;;;;;;;3.17;2.87;;;15.80;96.50;;;15.38;67.86;100099.94;5052741;28;20237;-76
2023/07/01 03:14:28;;;;;;;4.10;2.47;;;15.80;96.60;;;15.38;67.41;100091.84;5052657;28;20309;-76
2023/07/01 03:17:01;;;;;;;2.67;2.47;;;15.80;96.70;;;15.38;67.92;100097.25;5052447;28;20736;-76
2023/07/01 03:19:34;;;;;;;3.73;2.70;;;16.00;96.60;;;15.38;67.52;100097.25;5053026;28;20201;-76
2023/07/01 03:22:06;;;;;;;3.20;2.47;;;15.80;96.40;;;15.39;67.75;100100.78;5052563;28;20197;-76
2023/07/01 03:24:38;;;;;;;3.10;2.53;;;15.80;96.40;;;15.39;66.75;100096.22;5052536;28;20258;-76
2023/07/01 03:27:10;;;;;;;3.90;2.63;;;15.80;96.50;;;15.39;67.51;100096.22;5052305;28;20187;-76
2023/07/01 03:29:42;;;;;;;4.73;2.70;;;15.80;96.30;;;15.38;67.20;100091.03;5052582;28;20191;-76
2023/07/01 03:32:15;;;;;;;4.97;2.67;;;15.80;96.30;;;15.36;67.74;100091.25;5052242;28;20193;-76
2023/07/01 03:34:48;;;;;;;6.17;3.13;;;16.00;96.50;;;15.37;67.51;100086.69;5052035;28;20716;-77
2023/07/01 03:37:19;;;;;;;5.20;2.70;;;15.90;96.40;;;15.37;67.56;100081.28;5052547;28;20194;-77
2023/07/01 03:39:51;;;;;;;8.27;2.70;;;15.80;96.50;;;15.39;68.13;100090.84;5052500;28;20210;-77
2023/07/01 03:42:23;;;;;;;3.13;2.43;;;15.80;96.70;;;15.37;68.16;100084.00;5052493;28;20282;-77
2023/07/01 03:44:55;;;;;;;5.10;2.50;;;15.80;96.60;;;15.38;67.98;100078.38;5052388;28;20234;-77
2023/07/01 03:47:28;;;;;;;3.30;2.73;;;15.80;96.70;;;15.39;67.84;100081.91;5052514;28;20297;-76
2023/07/01 03:50:00;;;;;;;5.13;2.77;;;15.90;96.90;;;15.37;67.89;100076.72;5053299;28;20597;-76
2023/07/01 03:52:32;;;;;;;5.53;2.80;;;15.90;96.80;;;15.37;67.48;100078.59;5055780;28;20285;-76
2023/07/01 03:55:04;;;;;;;3.93;2.50;;;15.90;96.80;;;15.39;67.92;100076.50;5055923;28;20229;-76
2023/07/01 03:57:37;;;;;;;6.43;2.90;;;15.90;96.90;;;15.36;68.83;100076.94;5055925;28;20228;-76
2023/07/01 04:00:17;;;;;;;4.20;2.60;;;15.80;97.20;;;15.36;68.38;100072.38;5055834;28;20190;-77
2023/07/01 04:02:53;;;;;;;6.23;2.80;;;15.90;97.10;;;15.39;68.92;100071.94;5055908;28;20197;-76
2023/07/01 04:05:25;;;;;;;4.10;2.77;;;15.90;97.30;;;15.38;68.50;100070.28;5055832;28;20264;-76
2023/07/01 04:07:57;;;;;;;6.50;2.50;;;15.90;97.30;;;15.40;68.53;100062.00;5055501;28;20713;-77
2023/07/01 04:10:30;;;;;;;4.67;2.70;;;15.90;97.30;;;15.42;68.37;100060.75;5055386;28;20585;-76
2023/07/01 04:13:04;;;;;;;6.00;2.63;;;15.90;97.30;;;15.44;68.58;100056.00;5055864;28;20214;-76
2023/07/01 04:15:36;;;;;;;3.50;3.07;;;16.00;97.20;;;15.45;68.51;100052.22;5055564;28;20261;-75
2023/07/01 04:18:09;;;;;;;3.50;2.40;;;16.00;97.20;;;15.45;68.50;100046.84;5055616;28;20195;-76
2023/07/01 04:20:41;;;;;;;5.07;2.63;;;15.90;97.30;;;15.46;69.06;100048.50;5055590;28;20237;-76
2023/07/01 04:23:13;;;;;;;4.20;2.80;;;15.90;97.20;;;15.46;68.42;100034.19;5055514;28;20618;-76
2023/07/01 04:25:45;;;;;;;5.27;2.77;;;16.00;97.20;;;15.48;68.26;100040.22;5055070;28;20316;-76
2023/07/01 04:28:17;;;;;;;4.27;2.50;;;16.10;97.40;;;15.48;68.75;100037.50;5055416;28;20213;-76
2023/07/01 04:30:49;;;;;;;4.67;2.60;;;16.00;97.30;;;15.48;68.78;100038.34;5055301;28;20265;-76
2023/07/01 04:33:23;;;;;;;9.13;2.83;;;16.00;97.10;;;15.46;67.77;100029.63;5055243;28;20191;-76
2023/07/01 04:35:55;;;;;;;4.70;2.90;;;16.00;97.10;;;15.49;68.27;100018.44;5054965;28;20301;-76
2023/07/01 04:38:27;;;;;;;6.70;2.53;;;16.00;97.00;;;15.49;67.71;100023.00;5055233;28;20248;-76
2023/07/01 04:40:59;;;;;;;5.53;2.83;;;16.00;97.00;;;15.51;67.80;100015.53;5055242;28;20221;-76
2023/07/01 04:43:31;;;;;;;5.33;2.47;;;16.00;96.80;;;15.52;67.77;100012.63;5055114;28;20190;-76
2023/07/01 04:46:03;;;;;;;5.43;2.40;;;16.00;96.80;;;15.54;67.31;100012.44;5055353;28;20233;-76
2023/07/01 04:48:36;;;;;;;4.53;2.63;;;16.10;96.60;;;15.56;66.76;100008.47;5055076;28;20191;-76
2023/07/01 04:51:09;;;;;;;4.37;2.57;;;16.10;96.50;;;15.58;67.54;100009.06;5055211;28;20249;-76
2023/07/01 04:53:43;;;;;;;2.93;2.50;;;16.10;96.60;;;15.60;66.76;100001.63;5054931;28;20257;-76
2023/07/01 04:56:14;;;;;;;4.33;2.60;;;16.10;96.40;;;15.61;67.11;100000.59;5054920;28;20622;-76
2023/07/01 04:58:46;;;;;;;5.87;2.70;;;16.20;96.30;;;15.64;67.75;100004.72;5054854;28;20277;-77
2023/07/01 05:01:19;;;;;;;5.27;2.57;;;16.20;96.60;;;15.65;67.08;99999.09;5054523;28;20204;-77
2023/07/01 05:03:52;;;;;;;4.53;2.67;;;16.30;96.40;;;15.67;66.30;99997.03;5054686;28;20272;-77
2023/07/01 05:06:24;;;;;;;3.30;2.97;;;16.30;96.30;;;15.71;66.23;99992.06;5054705;28;20191;-76
2023/07/01 05:08:56;;;;;;;5.10;2.50;;;16.30;95.80;;;15.73;66.22;99988.09;5054357;28;20198;-76
2023/07/01 05:11:28;;;;;;;4.70;2.63;;;16.30;96.20;;;15.76;66.86;99986.00;5054510;28;20305;-76
2023/07/01 05:14:04;;;;;;;5.43;2.47;;;16.40;96.50;;;15.78;66.42;99979.38;5054460;28;20226;-76
2023/07/01 05:16:36;;;;;;;5.97;2.90;;;16.40;96.50;;;15.81;66.86;99980.81;5054416;28;20221;-76
2023/07/01 05:19:09;;;;;;;4.13;2.90;;;16.40;96.30;;;15.83;66.01;99978.72;5054469;28;20252;-76
2023/07/01 05:21:49;;;;;;;7.73;2.70;;;16.40;96.10;;;15.85;67.53;99974.78;5054387;28;20210;-76
2023/07/01 05:24:22;;;;;;;3.97;2.40;;;16.40;96.30;;;15.87;68.05;99971.84;5054215;28;20320;-76
2023/07/01 05:26:54;;;;;;;5.93;2.67;;;16.40;96.60;;;15.89;67.10;99975.19;5054223;28;20564;-76
2023/07/01 05:29:28;;;;;;;3.63;2.47;;;16.50;96.70;;;15.90;67.86;99966.03;5053946;28;20637;-76
2023/07/01 05:32:00;;;;;;;4.80;2.70;;;16.50;96.90;;;15.92;68.06;99963.97;5054193;28;20260;-76
2023/07/01 05:34:33;;;;;;;3.57;2.57;;;16.50;96.90;;;15.94;68.35;99967.25;5053808;28;20233;-76
2023/07/01 05:37:05;;;;;;;3.83;2.53;;;16.50;97.10;;;15.96;68.23;99965.19;5053756;28;20648;-76
2023/07/01 05:39:37;;;;;;;4.07;2.50;;;16.50;97.10;;;15.98;67.95;99957.69;5054817;28;20221;-76
2023/07/01 05:42:10;;;;;;;4.47;2.83;;;16.60;96.80;;;16.03;67.97;99960.56;5053983;28;20186;-76
2023/07/01 05:44:42;;;;;;;4.97;2.60;;;16.60;97.10;;;16.06;67.78;99954.75;5053582;28;20574;-76
2023/07/01 05:47:14;;;;;;;4.57;2.50;;;16.70;97.10;;;16.10;68.43;99955.97;5053624;28;20244;-76
2023/07/01 05:49:47;;;;;;;4.20;2.80;;;16.70;97.30;;;16.16;67.90;99963.22;5053899;28;20196;-76
2023/07/01 05:52:19;;;;;;;4.27;2.80;;;16.70;96.90;;;16.18;68.25;99958.44;5053607;28;20249;-76
2023/07/01 05:54:51;;;;;;;3.93;2.73;;;16.80;96.80;;;16.23;67.13;99964.03;5053402;28;20230;-76
2023/07/01 05:57:23;;;;;;;4.73;2.70;;;16.80;96.30;;;16.25;67.52;99961.94;5053446;28;20632;-76
2023/07/01 05:59:55;;;;;;;5.83;2.60;;;16.90;96.40;;;16.28;66.92;99949.84;5053360;28;20652;-76
2023/07/01 06:02:26;;;;;;;4.60;2.77;;;16.80;96.10;;;16.32;65.81;99957.31;5053327;28;20615;-76
2023/07/01 06:05:00;;;;;;;4.17;2.70;;;16.90;95.80;;;16.32;68.04;99954.63;5053524;28;20233;-76
2023/07/01 06:07:32;;;;;;;3.63;2.30;;;17.00;96.70;;;16.32;69.04;99960.03;5053556;28;20288;-76
2023/07/01 06:10:04;;;;;;;3.93;2.57;;;16.90;97.20;;;16.32;68.90;99957.31;5053525;28;20200;-76
2023/07/01 06:12:36;;;;;;;5.60;2.80;;;17.00;97.30;;;16.34;68.11;99952.50;5052876;28;20244;-76
2023/07/01 06:15:09;;;;;;;7.30;2.87;;;16.90;97.00;;;16.35;69.61;99943.38;5053412;28;20325;-76
2023/07/01 06:17:41;;;;;;;5.63;2.60;;;16.90;97.30;;;16.37;69.73;99946.69;5053384;28;20218;-76
2023/07/01 06:20:15;;;;;;;6.40;2.50;;;16.90;97.30;;;16.39;68.99;99939.19;5053346;28;20297;-76
2023/07/01 06:22:47;;;;;;;5.07;2.70;;;16.90;97.40;;;16.42;69.30;99941.47;5053381;28;20190;-76
2023/07/01 06:25:19;;;;;;;4.53;2.87;;;17.00;97.40;;;16.45;69.21;99926.69;5053226;28;20309;-76
2023/07/01 06:27:51;;;;;;;4.07;2.50;;;17.10;97.30;;;16.47;68.67;99930.81;5052907;28;20548;-76
2023/07/01 06:30:23;;;;;;;4.87;2.77;;;17.00;97.20;;;16.49;69.15;99927.91;5053279;28;20225;-76
2023/07/01 06:32:55;;;;;;;4.27;2.40;;;17.10;97.20;;;16.53;68.53;99923.72;5053196;28;20214;-76
2023/07/01 06:35:28;;;;;;;6.97;2.30;;;17.10;97.40;;;16.55;68.56;99919.78;5052764;28;20230;-76
2023/07/01 06:38:00;;;;;;;4.87;2.80;;;17.10;97.50;;;16.58;69.55;99922.06;5053190;28;20226;-76
2023/07/01 06:40:31;;;;;;;4.40;2.93;;;17.20;97.60;;;16.60;69.31;99914.56;5053163;28;20301;-76
2023/07/01 06:43:04;;;;;;;4.83;3.00;;;17.20;97.40;;;16.63;69.23;99918.69;5053190;28;20209;-76
2023/07/01 06:45:37;;;;;;;4.03;2.47;;;17.20;97.40;;;16.64;68.95;99913.06;5053012;28;20230;-76
2023/07/01 06:48:10;;;;;;;5.17;2.70;;;17.20;97.20;;;16.66;67.94;99908.28;5053140;28;20210;-76
2023/07/01 06:50:43;;;;;;;3.37;2.57;;;17.20;97.10;;;16.68;68.84;99905.34;5053254;28;20194;-76
2023/07/01 06:53:16;;;;;;;2.93;2.30;;;17.40;97.10;;;16.71;68.71;99908.44;5052919;28;20300;-76
2023/07/01 06:55:47;;;;;;;4.80;2.43;;;17.30;97.10;;;16.72;68.82;99901.16;5052642;28;20671;-76
2023/07/01 06:58:20;;;;;;;3.80;2.47;;;17.30;97.20;;;16.74;68.03;99899.06;5052920;28;20312;-76
2023/07/01 07:00:52;;;;;;;5.67;2.80;;;17.30;97.10;;;16.77;69.29;99903.22;5053137;28;20237;-74
2023/07/01 07:03:24;;;;;;;6.50;2.60;;;17.30;97.30;;;16.80;68.68;99910.88;5053286;28;20190;-76
2023/07/01 07:05:58;;;;;;;3.90;2.23;;;17.40;97.10;;;16.80;68.58;99902.75;5052911;28;20191;-76
2023/07/01 07:08:30;;;;;;;5.97;3.00;;;17.40;97.20;;;16.82;67.38;99903.34;5052860;28;20198;-76
2023/07/01 07:11:02;;;;;;;3.50;2.60;;;17.40;96.90;;;16.82;68.48;99901.47;5052531;28;20285;-76
2023/07/01 07:13:34;;;;;;;3.33;2.77;;;17.40;97.30;;;16.83;68.44;99889.63;5052681;28;20256;-76
2023/07/01 07:16:06;;;;;;;5.13;2.60;;;17.40;97.30;;;16.84;68.64;99893.16;5052803;28;20230;-76
2023/07/01 07:18:38;;;;;;;4.63;2.70;;;17.40;97.20;;;16.86;68.13;99885.66;5053299;28;20202;-76
2023/07/01 07:21:11;;;;;;;4.60;2.50;;;17.40;97.10;;;16.86;68.88;99885.66;5052700;28;20637;-76
2023/07/01 07:23:43;;;;;;;3.43;2.47;;;17.40;97.40;;;16.87;68.41;99887.31;5053487;28;20316;-76
2023/07/01 07:26:16;;;;;;;7.60;2.70;;;17.40;97.50;;;16.88;68.48;99883.56;5056637;28;20190;-76
2023/07/01 07:28:48;;;;;;;4.33;2.50;;;17.50;97.40;;;16.89;67.95;99879.78;5056617;28;20233;-76
2023/07/01 07:31:20;;;;;;;4.10;3.00;;;17.50;97.30;;;16.90;68.35;99879.59;5056220;28;20614;-76
2023/07/01 07:33:51;;;;;;;4.10;2.83;;;17.40;97.30;;;16.91;68.00;99877.72;5056308;28;20238;-76
2023/07/01 07:36:25;;;;;;;4.17;2.60;;;17.50;97.10;;;16.91;67.91;99875.00;5056417;28;20606;-76
2023/07/01 07:38:57;;;;;;;4.63;2.53;;;17.50;97.00;;;16.94;68.29;99869.16;5056427;28;20187;-76
2023/07/01 07:41:29;;;;;;;4.97;2.80;;;17.40;97.00;;;16.97;68.15;99876.81;5056358;28;20201;-76
2023/07/01 07:44:01;;;;;;;5.07;2.70;;;17.50;97.10;;;16.99;67.81;99869.28;5056157;28;20291;-76
2023/07/01 07:46:33;;;;;;;2.97;2.40;;;17.50;97.10;;;17.01;68.85;99861.81;5056267;28;20201;-76
2023/07/01 07:49:05;;;;;;;5.47;3.30;;;17.60;97.30;;;17.02;68.36;99860.78;5056213;28;20293;-76
2023/07/01 07:51:39;;;;;;;3.27;2.40;;;17.60;97.30;;;17.06;68.62;99856.53;5056119;28;20191;-76
2023/07/01 07:54:10;;;;;;;5.73;2.73;;;17.60;97.30;;;17.08;68.88;99851.75;5055935;28;20230;-76
2023/07/01 07:56:42;;;;;;;5.60;2.90;;;17.70;97.20;;;17.12;68.21;99853.75;5056078;28;20277;-76
2023/07/01 07:59:14;;;;;;;2.90;2.40;;;17.70;97.10;;;17.17;68.39;99845.00;5055875;28;20277;-76
2023/07/01 08:01:46;;;;;;;4.63;2.80;;;17.70;97.10;;;17.20;68.17;99844.53;5056758;28;20187;-76
2023/07/01 08:04:19;;;;;;;5.60;2.53;;;17.70;97.00;;;17.24;68.24;99843.03;5055891;28;20233;-76
2023/07/01 08:06:53;;;;;;;5.70;2.50;;;17.80;97.10;;;17.27;69.82;99839.06;5055865;28;20194;-76
2023/07/01 08:09:25;;;;;;;6.33;2.53;;;17.90;97.60;;;17.31;68.55;99835.69;5055848;28;20191;-76
2023/07/01 08:11:58;;;;;;;4.93;2.60;;;17.90;97.10;;;17.33;68.20;99841.69;5055746;28;20204;-76
2023/07/01 08:14:30;;;;;;;6.40;2.53;;;17.90;96.90;;;17.34;68.53;99829.81;5055547;28;20226;-76
2023/07/01 08:17:03;;;;;;;4.00;2.50;;;17.90;97.00;;;17.37;68.92;99840.19;5055687;28;20191;-76
2023/07/01 08:19:35;;;;;;;6.00;2.70;;;17.90;97.10;;;17.38;68.94;99836.44;5055625;28;20197;-76
2023/07/01 08:22:09;;;;;;;6.10;2.80;;;18.00;97.20;;;17.41;69.01;99838.69;5055547;28;20229;-76
2023/07/01 08:24:41;;;;;;;3.00;2.47;;;17.90;97.00;;;17.43;68.42;99839.25;5055397;28;20309;-76
2023/07/01 08:27:13;;;;;;;3.93;2.83;;;18.00;97.10;;;17.44;68.69;99840.94;5055496;28;20281;-76
2023/07/01 08:29:45;;;;;;;4.93;3.00;;;18.10;97.10;;;17.45;68.63;99829.06;5055116;28;20719;-76
2023/07/01 08:32:17;;;;;;;3.90;2.67;;;18.00;97.40;;;17.47;68.64;99834.22;5055373;28;20214;-76
2023/07/01 08:34:48;;;;;;;3.83;2.50;;;18.00;97.20;;;17.49;68.50;99843.78;5054883;28;20241;-76
2023/07/01 08:37:21;;;;;;;4.63;2.53;;;18.00;97.20;;;17.51;68.79;99835.44;5054564;28;20289;-76
2023/07/01 08:39:53;;;;;;;3.83;2.57;;;18.10;97.40;;;17.60;66.92;99829.50;5055205;28;20600;-76
2023/07/01 08:42:42;;;;;;;8.33;2.60;;;18.10;96.30;;;17.64;67.52;99832.59;5055044;28;20655;-76
2023/07/01 08:45:15;;;;;;;7.73;2.63;;;18.20;97.00;;;17.66;67.82;99834.03;5055508;28;20620;-76
2023/07/01 08:47:48;;;;;;;5.77;2.93;;;18.20;96.90;;;17.67;68.12;99829.44;5055488;28;20197;-77
2023/07/01 08:50:23;;;;;;;4.10;2.70;;;18.20;96.90;;;17.66;69.48;99825.91;5055439;28;20198;-76
2023/07/01 08:53:03;;;;;;;4.03;2.80;;;18.20;97.70;;;17.67;65.11;99824.84;5055147;28;20260;-76
2023/07/01 08:55:35;;;;;;;3.57;2.70;;;18.20;95.40;;;17.69;67.67;99821.91;5055215;28;20312;-76
2023/07/01 08:58:07;;;;;;;5.57;2.70;;;18.20;96.70;;;17.70;66.66;99827.13;5055358;28;20190;-76
2023/07/01 09:00:40;;;;;;;5.27;2.57;;;18.20;96.30;;;17.69;67.73;99814.63;5054922;28;20649;-76
2023/07/01 09:03:12;;;;;;;9.17;3.13;;;18.30;96.80;;;17.70;66.99;99824.41;5055082;28;20320;-76
2023/07/01 09:05:44;;;;;;;6.43;3.00;;;18.30;96.70;;;17.70;67.25;99816.28;5055060;28;20288;-76
2023/07/01 09:08:18;;;;;;;7.93;2.87;;;18.20;97.00;;;17.73;66.98;99821.25;5055003;28;20658;-76
2023/07/01 09:10:50;;;;;;;5.10;3.07;;;18.20;96.50;;;17.77;67.27;99815.38;5054837;28;20679;-76
2023/07/01 09:13:22;;;;;;;4.27;2.80;;;18.30;96.70;;;17.79;67.91;99818.66;5055371;28;20293;-76
2023/07/01 09:15:54;;;;;;;4.33;2.90;;;18.30;96.80;;;17.85;67.28;99815.03;5054540;28;20667;-76
2023/07/01 09:18:28;;;;;;;9.70;3.00;;;18.40;97.00;;;17.90;67.11;99807.06;5055467;28;20260;-76
2023/07/01 09:21:02;;;;;;;5.00;2.90;;;18.40;96.40;;;17.93;69.20;99810.13;5054931;28;20194;-74
2023/07/01 09:23:38;;;;;;;3.83;2.70;;;18.50;98.10;;;17.97;66.63;99814.03;5054199;28;20631;-74
2023/07/01 09:26:19;;;;;;;4.67;3.17;;;18.60;96.50;;;18.05;66.36;99796.59;5054415;28;20722;-73
2023/07/01 09:28:53;;;;;;;5.50;3.33;;;18.60;95.90;;;18.09;66.93;99806.75;5054392;28;20200;-73
2023/07/01 09:31:25;;;;;;;4.63;2.83;;;18.60;96.30;;;18.19;64.97;99800.75;5054401;28;20233;-73
2023/07/01 09:34:06;;;;;;;4.60;2.90;;;18.70;95.40;;;18.23;67.26;99797.38;5054096;28;20336;-74
2023/07/01 09:36:38;;;;;;;4.83;3.03;;;18.80;96.40;;;18.30;64.92;99791.84;5054042;28;20667;-74
2023/07/01 09:39:12;;;;;;;3.67;2.80;;;18.90;95.30;;;18.41;63.04;99785.63;5054241;28;20200;-74
2023/07/01 09:41:44;;;;;;;4.27;2.87;;;19.00;94.40;;;18.52;61.05;99790.25;5054415;28;20234;-74
2023/07/01 09:44:20;;;;;;;5.20;2.97;;;19.10;93.50;;;18.66;60.67;99794.38;5054120;28;20305;-74
2023/07/01 09:46:52;;;;;;;4.40;2.63;;;19.20;93.30;;;18.78;59.68;99797.09;5053758;28;20297;-74
2023/07/01 09:49:36;;;;;;;3.37;2.70;;;19.30;92.60;;;18.82;58.50;99794.72;5053697;28;20606;-74
2023/07/01 09:52:09;;;;;;;3.40;2.60;;;19.40;92.10;;;18.84;58.45;99793.41;5053947;28;20240;-73
2023/07/01 09:54:42;;;;;;;5.30;2.90;;;19.40;92.00;;;18.87;58.15;99800.28;5054134;28;20325;-74
2023/07/01 09:57:14;;;;;;;3.40;2.67;;;19.40;92.00;;;18.83;59.49;99797.22;5054082;28;20212;-74
2023/07/01 09:59:47;;;;;;;5.90;2.90;;;19.40;92.50;;;18.86;59.89;99795.91;5053971;28;20289;-74
2023/07/01 10:02:20;;;;;;;4.80;2.60;;;19.40;92.50;;;18.80;59.75;99796.88;5054083;28;20277;-74
2023/07/01 10:04:55;;;;;;;7.10;3.00;;;19.30;92.50;;;18.86;58.76;99798.63;5053893;28;20301;-74
2023/07/01 10:07:27;;;;;;;6.13;3.30;;;19.50;92.00;;;18.87;59.54;99792.16;5053961;28;20280;-73
2023/07/01 10:10:01;;;;;;;4.40;2.77;;;19.40;92.40;;;18.89;59.74;99795.44;5054071;28;20226;-73
2023/07/01 10:12:36;;;;;;;5.47;2.90;;;19.40;92.50;;;18.89;59.40;99795.44;5053614;28;20225;-75
2023/07/01 10:15:10;;;;;;;3.47;2.40;;;19.40;92.30;;;18.87;59.86;99786.72;5053607;28;20312;-75
2023/07/01 10:17:52;;;;;;;5.13;3.00;;;19.40;92.50;;;18.88;59.88;99789.19;5053269;28;20658;-75
2023/07/01 10:20:34;;;;;;;6.50;2.90;;;19.40;92.70;;;18.87;60.20;99787.53;5053618;28;20240;-75
2023/07/01 10:23:06;;;;;;;4.67;4.10;;;19.40;92.60;;;18.87;60.40;99781.31;5053603;28;20285;-75
2023/07/01 10:25:41;;;;;;;6.57;2.90;;;19.40;92.90;;;18.88;59.54;99788.34;5053179;28;20226;-75
2023/07/01 10:28:14;;;;;;;5.47;2.80;;;19.40;92.40;;;18.86;59.58;99788.59;5053818;28;20194;-75
2023/07/01 10:31:16;;;;;;;5.33;2.70;;;19.40;92.60;;;18.85;60.09;99788.81;5053453;28;20591;-75
2023/07/01 10:34:00;;;;;;;5.73;3.27;;;19.30;92.30;;;18.84;60.22;99787.16;5053151;28;20229;-75
2023/07/01 10:36:36;;;;;;;4.00;2.80;;;19.30;92.80;;;18.82;60.88;99783.88;5053762;28;20308;-75
2023/07/01 10:39:34;;;;;;;4.53;2.80;;;19.30;93.00;;;18.80;60.61;99786.00;5053385;28;20215;-75
2023/07/01 10:42:30;;;;;;;4.60;3.07;;;19.30;92.80;;;18.78;60.58;99786.25;5053417;28;20197;-75